sensor_id;sensor_type;location;lat;lon;timestamp;pressure;altitude;pressure_sealevel;temperature;humidity
15670;BME280;18524;45.190;5.732;2022-10-17T00:03:09;99748.38;;;18.58;76.00
15670;BME280;18524;45.190;5.732;2022-10-17T00:07:59;99754.81;;;18.48;76.66
15670;BME280;18524;45.190;5.732;2022-10-17T00:12:51;99765.91;;;18.43;76.92
15670;BME280;18524;45.190;5.732;2022-10-17T00:17:41;99763.09;;;18.44;77.14
15670;BME280;18524;45.190;5.732;2022-10-17T00:22:31;99774.34;;;18.38;77.07
15670;BME280;18524;45.190;5.732;2022-10-17T00:27:22;99774.00;;;18.33;77.58
15670;BME280;18524;45.190;5.732;2022-10-17T00:32:12;99783.16;;;18.39;76.85
15670;BME280;18524;45.190;5.732;2022-10-17T00:37:03;99784.75;;;18.24;77.13
15670;BME280;18524;45.190;5.732;2022-10-17T00:41:53;99783.91;;;18.23;77.06
15670;BME280;18524;45.190;5.732;2022-10-17T00:46:43;99786.63;;;18.13;78.26
15670;BME280;18524;45.190;5.732;2022-10-17T00:52:16;99789.63;;;18.10;78.99
15670;BME280;18524;45.190;5.732;2022-10-17T00:57:04;99789.31;;;17.88;80.76
15670;BME280;18524;45.190;5.732;2022-10-17T01:02:16;99792.78;;;17.88;81.08
15670;BME280;18524;45.190;5.732;2022-10-17T01:07:08;99782.59;;;17.84;81.78
15670;BME280;18524;45.190;5.732;2022-10-17T01:17:21;99795.88;;;17.84;82.58
15670;BME280;18524;45.190;5.732;2022-10-17T01:23:04;99789.53;;;17.76;81.89
15670;BME280;18524;45.190;5.732;2022-10-17T01:32:48;99804.00;;;17.64;82.88
15670;BME280;18524;45.190;5.732;2022-10-17T01:38:05;99803.31;;;17.62;83.93
15670;BME280;18524;45.190;5.732;2022-10-17T01:43:04;99809.59;;;17.61;84.57
15670;BME280;18524;45.190;5.732;2022-10-17T01:47:59;99801.13;;;17.58;84.76
15670;BME280;18524;45.190;5.732;2022-10-17T01:52:54;99806.72;;;17.55;85.42
15670;BME280;18524;45.190;5.732;2022-10-17T01:57:50;99801.44;;;17.55;85.46
15670;BME280;18524;45.190;5.732;2022-10-17T02:02:44;99799.97;;;17.60;85.42
15670;BME280;18524;45.190;5.732;2022-10-17T02:07:40;99807.34;;;17.48;85.96
15670;BME280;18524;45.190;5.732;2022-10-17T02:12:40;99794.22;;;17.47;86.40
15670;BME280;18524;45.190;5.732;2022-10-17T02:17:45;99798.16;;;17.43;86.98
15670;BME280;18524;45.190;5.732;2022-10-17T02:22:57;99786.16;;;17.39;87.30
15670;BME280;18524;45.190;5.732;2022-10-17T02:32:54;99788.28;;;17.35;87.07
15670;BME280;18524;45.190;5.732;2022-10-17T02:37:47;99793.28;;;17.21;87.66
15670;BME280;18524;45.190;5.732;2022-10-17T02:42:42;99793.38;;;17.29;86.88
15670;BME280;18524;45.190;5.732;2022-10-17T02:47:39;99798.06;;;17.17;87.46
15670;BME280;18524;45.190;5.732;2022-10-17T02:57:30;99798.94;;;17.08;88.20
15670;BME280;18524;45.190;5.732;2022-10-17T03:02:23;99801.75;;;17.06;88.30
15670;BME280;18524;45.190;5.732;2022-10-17T03:07:14;99801.44;;;17.09;87.96
15670;BME280;18524;45.190;5.732;2022-10-17T03:12:04;99801.88;;;17.05;87.96
15670;BME280;18524;45.190;5.732;2022-10-17T03:16:55;99812.09;;;17.00;88.68
15670;BME280;18524;45.190;5.732;2022-10-17T03:21:45;99823.16;;;16.95;88.60
15670;BME280;18524;45.190;5.732;2022-10-17T03:26:35;99822.47;;;16.93;89.21
15670;BME280;18524;45.190;5.732;2022-10-17T03:31:26;99816.09;;;16.86;89.90
15670;BME280;18524;45.190;5.732;2022-10-17T03:36:18;99821.88;;;16.62;91.45
15670;BME280;18524;45.190;5.732;2022-10-17T03:41:09;99832.34;;;16.54;93.18
15670;BME280;18524;45.190;5.732;2022-10-17T03:46:00;99830.16;;;16.49;93.66
15670;BME280;18524;45.190;5.732;2022-10-17T03:50:51;99838.63;;;16.53;93.53
15670;BME280;18524;45.190;5.732;2022-10-17T03:55:41;99847.16;;;16.47;94.44
15670;BME280;18524;45.190;5.732;2022-10-17T04:00:34;99831.84;;;16.41;94.13
15670;BME280;18524;45.190;5.732;2022-10-17T04:05:25;99835.44;;;16.49;93.58
15670;BME280;18524;45.190;5.732;2022-10-17T04:10:15;99837.38;;;16.57;92.85
15670;BME280;18524;45.190;5.732;2022-10-17T04:15:06;99848.41;;;16.52;92.75
15670;BME280;18524;45.190;5.732;2022-10-17T04:19:57;99853.47;;;16.36;94.07
15670;BME280;18524;45.190;5.732;2022-10-17T04:24:48;99861.13;;;16.20;95.23
15670;BME280;18524;45.190;5.732;2022-10-17T04:29:39;99857.34;;;16.32;94.78
15670;BME280;18524;45.190;5.732;2022-10-17T04:34:29;99867.53;;;16.27;95.13
15670;BME280;18524;45.190;5.732;2022-10-17T04:39:20;99882.19;;;16.21;95.49
15670;BME280;18524;45.190;5.732;2022-10-17T04:44:11;99881.75;;;16.26;95.48
15670;BME280;18524;45.190;5.732;2022-10-17T04:49:01;99882.28;;;16.30;94.73
15670;BME280;18524;45.190;5.732;2022-10-17T04:53:51;99882.97;;;16.32;95.01
15670;BME280;18524;45.190;5.732;2022-10-17T04:58:43;99881.75;;;16.26;95.29
15670;BME280;18524;45.190;5.732;2022-10-17T05:03:33;99887.31;;;16.23;96.48
15670;BME280;18524;45.190;5.732;2022-10-17T05:08:24;99890.81;;;16.23;95.74
15670;BME280;18524;45.190;5.732;2022-10-17T05:13:14;99888.19;;;16.14;96.70
15670;BME280;18524;45.190;5.732;2022-10-17T05:18:05;99890.94;;;16.32;95.64
15670;BME280;18524;45.190;5.732;2022-10-17T05:22:59;99895.56;;;16.20;96.38
15670;BME280;18524;45.190;5.732;2022-10-17T05:27:50;99902.13;;;16.06;97.66
15670;BME280;18524;45.190;5.732;2022-10-17T05:32:40;99907.25;;;15.98;97.97
15670;BME280;18524;45.190;5.732;2022-10-17T05:37:30;99911.84;;;15.86;99.18
15670;BME280;18524;45.190;5.732;2022-10-17T05:42:21;99918.94;;;15.86;99.10
15670;BME280;18524;45.190;5.732;2022-10-17T05:47:11;99916.03;;;15.79;99.79
15670;BME280;18524;45.190;5.732;2022-10-17T05:52:01;99917.56;;;15.82;99.97
15670;BME280;18524;45.190;5.732;2022-10-17T05:56:53;99916.44;;;15.84;99.39
15670;BME280;18524;45.190;5.732;2022-10-17T06:01:44;99925.22;;;15.85;99.68
15670;BME280;18524;45.190;5.732;2022-10-17T06:06:38;99936.91;;;15.82;100.00
15670;BME280;18524;45.190;5.732;2022-10-17T06:11:29;99943.59;;;15.96;98.28
15670;BME280;18524;45.190;5.732;2022-10-17T06:16:20;99958.91;;;15.92;98.34
15670;BME280;18524;45.190;5.732;2022-10-17T06:21:11;99957.09;;;15.93;98.71
15670;BME280;18524;45.190;5.732;2022-10-17T06:26:05;99969.34;;;15.94;98.42
15670;BME280;18524;45.190;5.732;2022-10-17T06:30:56;99985.13;;;16.05;97.77
15670;BME280;18524;45.190;5.732;2022-10-17T06:35:51;99995.16;;;16.11;97.78
15670;BME280;18524;45.190;5.732;2022-10-17T06:40:41;99990.25;;;15.97;98.97
15670;BME280;18524;45.190;5.732;2022-10-17T06:45:32;100011.72;;;16.04;98.74
15670;BME280;18524;45.190;5.732;2022-10-17T06:50:22;100012.16;;;16.18;97.97
15670;BME280;18524;45.190;5.732;2022-10-17T06:55:12;100015.78;;;16.46;96.12
15670;BME280;18524;45.190;5.732;2022-10-17T07:00:04;100026.41;;;16.75;94.44
15670;BME280;18524;45.190;5.732;2022-10-17T07:04:55;100026.88;;;17.08;90.94
15670;BME280;18524;45.190;5.732;2022-10-17T07:09:45;100036.75;;;17.25;89.18
15670;BME280;18524;45.190;5.732;2022-10-17T07:14:36;100044.66;;;17.35;86.73
15670;BME280;18524;45.190;5.732;2022-10-17T07:19:26;100040.69;;;17.58;84.76
15670;BME280;18524;45.190;5.732;2022-10-17T07:24:16;100057.22;;;18.07;82.96
15670;BME280;18524;45.190;5.732;2022-10-17T07:29:08;100055.19;;;18.54;79.09
15670;BME280;18524;45.190;5.732;2022-10-17T07:33:59;100058.53;;;18.66;78.33
15670;BME280;18524;45.190;5.732;2022-10-17T07:38:49;100065.47;;;19.02;76.88
15670;BME280;18524;45.190;5.732;2022-10-17T07:43:40;100070.84;;;19.36;74.66
15670;BME280;18524;45.190;5.732;2022-10-17T07:48:32;100070.91;;;19.71;72.42
15670;BME280;18524;45.190;5.732;2022-10-17T07:53:22;100078.13;;;19.94;71.27
15670;BME280;18524;45.190;5.732;2022-10-17T07:58:13;100070.56;;;20.16;70.27
15670;BME280;18524;45.190;5.732;2022-10-17T08:03:04;100076.31;;;20.45;68.88
15670;BME280;18524;45.190;5.732;2022-10-17T08:07:55;100077.16;;;20.78;67.20
15670;BME280;18524;45.190;5.732;2022-10-17T08:12:45;100074.84;;;20.67;67.08
15670;BME280;18524;45.190;5.732;2022-10-17T08:17:37;100071.19;;;20.92;66.76
15670;BME280;18524;45.190;5.732;2022-10-17T08:22:28;100063.69;;;20.96;66.45
15670;BME280;18524;45.190;5.732;2022-10-17T08:27:18;100077.16;;;21.35;65.75
15670;BME280;18524;45.190;5.732;2022-10-17T08:32:13;100069.31;;;21.17;63.84
15670;BME280;18524;45.190;5.732;2022-10-17T08:37:03;100066.81;;;21.16;64.12
15670;BME280;18524;45.190;5.732;2022-10-17T08:46:56;100070.13;;;21.59;61.46
15670;BME280;18524;45.190;5.732;2022-10-17T08:51:53;100063.88;;;21.74;60.12
15670;BME280;18524;45.190;5.732;2022-10-17T08:56:48;100055.41;;;22.02;60.72
15670;BME280;18524;45.190;5.732;2022-10-17T09:06:38;100057.56;;;22.37;58.15
15670;BME280;18524;45.190;5.732;2022-10-17T09:12:30;100057.56;;;22.37;58.22
15670;BME280;18524;45.190;5.732;2022-10-17T09:22:21;100035.16;;;22.61;56.92
15670;BME280;18524;45.190;5.732;2022-10-17T09:27:46;100031.31;;;22.87;56.56
15670;BME280;18524;45.190;5.732;2022-10-17T09:32:37;100032.56;;;23.14;57.05
15670;BME280;18524;45.190;5.732;2022-10-17T09:37:30;100038.19;;;23.33;56.31
15670;BME280;18524;45.190;5.732;2022-10-17T09:42:23;100033.25;;;23.60;56.36
15670;BME280;18524;45.190;5.732;2022-10-17T09:47:42;100041.91;;;23.47;56.33
15670;BME280;18524;45.190;5.732;2022-10-17T09:52:39;100033.56;;;24.01;55.59
15670;BME280;18524;45.190;5.732;2022-10-17T09:57:57;100030.72;;;23.73;53.87
15670;BME280;18524;45.190;5.732;2022-10-17T10:02:48;100022.34;;;24.12;53.28
15670;BME280;18524;45.190;5.732;2022-10-17T10:07:38;100025.44;;;24.52;52.25
15670;BME280;18524;45.190;5.732;2022-10-17T10:12:32;100018.53;;;24.85;52.01
15670;BME280;18524;45.190;5.732;2022-10-17T10:17:32;100015.47;;;25.16;51.66
15670;BME280;18524;45.190;5.732;2022-10-17T10:22:24;100017.47;;;25.36;50.60
15670;BME280;18524;45.190;5.732;2022-10-17T10:27:16;100003.63;;;25.67;50.01
15670;BME280;18524;45.190;5.732;2022-10-17T10:32:26;100008.66;;;25.90;50.25
15670;BME280;18524;45.190;5.732;2022-10-17T10:37:20;100005.84;;;26.17;49.96
15670;BME280;18524;45.190;5.732;2022-10-17T10:42:33;99996.81;;;26.45;49.70
15670;BME280;18524;45.190;5.732;2022-10-17T10:47:27;99990.19;;;26.87;48.65
15670;BME280;18524;45.190;5.732;2022-10-17T10:52:26;99997.41;;;27.13;48.03
15670;BME280;18524;45.190;5.732;2022-10-17T10:57:20;99986.25;;;27.23;47.64
15670;BME280;18524;45.190;5.732;2022-10-17T11:02:23;99986.78;;;27.51;46.59
15670;BME280;18524;45.190;5.732;2022-10-17T11:07:22;99992.88;;;27.85;45.42
15670;BME280;18524;45.190;5.732;2022-10-17T11:12:26;99977.38;;;28.12;44.74
15670;BME280;18524;45.190;5.732;2022-10-17T11:17:29;99977.28;;;28.31;42.87
15670;BME280;18524;45.190;5.732;2022-10-17T11:22:29;99978.19;;;28.12;42.24
15670;BME280;18524;45.190;5.732;2022-10-17T11:27:20;99973.97;;;28.23;41.74
15670;BME280;18524;45.190;5.732;2022-10-17T11:37:34;99958.19;;;27.95;40.30
15670;BME280;18524;45.190;5.732;2022-10-17T11:42:38;99951.69;;;28.02;41.24
15670;BME280;18524;45.190;5.732;2022-10-17T11:47:37;99948.53;;;28.12;41.52
15670;BME280;18524;45.190;5.732;2022-10-17T11:52:44;99945.28;;;28.35;39.92
15670;BME280;18524;45.190;5.732;2022-10-17T12:08:34;99930.94;;;27.14;42.15
15670;BME280;18524;45.190;5.732;2022-10-17T12:18:17;99920.09;;;27.33;44.03
15670;BME280;18524;45.190;5.732;2022-10-17T12:42:48;99878.72;;;27.59;45.18
15670;BME280;18524;45.190;5.732;2022-10-17T12:47:39;99870.91;;;27.51;45.32
15670;BME280;18524;45.190;5.732;2022-10-17T13:02:39;99872.53;;;26.94;46.44
15670;BME280;18524;45.190;5.732;2022-10-17T13:07:32;99862.03;;;26.73;46.34
15670;BME280;18524;45.190;5.732;2022-10-17T13:12:24;99859.56;;;26.65;46.57
15670;BME280;18524;45.190;5.732;2022-10-17T13:17:24;99854.84;;;26.54;46.40
15670;BME280;18524;45.190;5.732;2022-10-17T13:22:22;99858.75;;;26.31;47.19
15670;BME280;18524;45.190;5.732;2022-10-17T13:27:26;99844.06;;;26.27;46.41
15670;BME280;18524;45.190;5.732;2022-10-17T13:32:17;99847.19;;;26.17;46.36
15670;BME280;18524;45.190;5.732;2022-10-17T13:37:12;99841.41;;;26.07;46.95
15670;BME280;18524;45.190;5.732;2022-10-17T13:42:03;99825.88;;;26.09;47.55
15670;BME280;18524;45.190;5.732;2022-10-17T13:46:54;99831.03;;;25.91;47.80
15670;BME280;18524;45.190;5.732;2022-10-17T13:51:47;99839.50;;;25.88;47.98
15670;BME280;18524;45.190;5.732;2022-10-17T13:56:38;99845.91;;;25.87;48.21
15670;BME280;18524;45.190;5.732;2022-10-17T14:01:30;99843.66;;;25.91;48.19
15670;BME280;18524;45.190;5.732;2022-10-17T14:06:24;99833.72;;;25.71;49.41
15670;BME280;18524;45.190;5.732;2022-10-17T14:11:23;99835.28;;;25.59;49.94
15670;BME280;18524;45.190;5.732;2022-10-17T14:16:14;99848.50;;;25.47;50.05
15670;BME280;18524;45.190;5.732;2022-10-17T14:21:05;99847.69;;;25.47;50.09
15670;BME280;18524;45.190;5.732;2022-10-17T14:26:15;99847.88;;;25.39;50.93
15670;BME280;18524;45.190;5.732;2022-10-17T14:36:10;99852.00;;;25.35;50.95
15670;BME280;18524;45.190;5.732;2022-10-17T14:45:57;99852.81;;;25.29;51.00
15670;BME280;18524;45.190;5.732;2022-10-17T14:51:10;99865.75;;;25.18;51.78
15670;BME280;18524;45.190;5.732;2022-10-17T14:56:17;99880.28;;;25.31;51.43
15670;BME280;18524;45.190;5.732;2022-10-17T15:01:09;99896.50;;;25.16;52.45
15670;BME280;18524;45.190;5.732;2022-10-17T15:06:19;99889.25;;;25.10;52.35
15670;BME280;18524;45.190;5.732;2022-10-17T15:11:10;99886.75;;;25.02;52.74
15670;BME280;18524;45.190;5.732;2022-10-17T15:16:00;99903.97;;;24.86;53.80
15670;BME280;18524;45.190;5.732;2022-10-17T15:20:51;99908.22;;;24.74;53.94
15670;BME280;18524;45.190;5.732;2022-10-17T15:25:41;99915.88;;;24.77;54.61
15670;BME280;18524;45.190;5.732;2022-10-17T15:30:34;99925.66;;;24.56;55.78
15670;BME280;18524;45.190;5.732;2022-10-17T15:35:26;99927.69;;;24.54;55.61
15670;BME280;18524;45.190;5.732;2022-10-17T15:40:21;99928.78;;;24.39;56.66
15670;BME280;18524;45.190;5.732;2022-10-17T15:45:14;99949.75;;;24.28;56.75
15670;BME280;18524;45.190;5.732;2022-10-17T15:50:06;99942.06;;;24.25;56.82
15670;BME280;18524;45.190;5.732;2022-10-17T15:54:57;99943.50;;;24.07;58.56
15670;BME280;18524;45.190;5.732;2022-10-17T15:59:49;99942.56;;;23.93;59.08
15670;BME280;18524;45.190;5.732;2022-10-17T16:04:40;99952.19;;;23.87;59.52
15670;BME280;18524;45.190;5.732;2022-10-17T16:09:30;99955.44;;;23.83;59.60
15670;BME280;18524;45.190;5.732;2022-10-17T16:14:21;99977.72;;;23.83;59.65
15670;BME280;18524;45.190;5.732;2022-10-17T16:19:11;99973.75;;;23.64;60.31
15670;BME280;18524;45.190;5.732;2022-10-17T16:24:02;99969.81;;;23.60;60.72
15670;BME280;18524;45.190;5.732;2022-10-17T16:28:53;99985.22;;;23.58;60.41
15670;BME280;18524;45.190;5.732;2022-10-17T16:33:48;99998.69;;;23.50;61.02
15670;BME280;18524;45.190;5.732;2022-10-17T16:38:39;100011.50;;;23.40;61.33
15670;BME280;18524;45.190;5.732;2022-10-17T16:43:29;100008.19;;;23.23;62.04
15670;BME280;18524;45.190;5.732;2022-10-17T16:48:25;100010.13;;;23.15;62.45
15670;BME280;18524;45.190;5.732;2022-10-17T16:53:15;100012.25;;;23.19;61.96
15670;BME280;18524;45.190;5.732;2022-10-17T16:58:05;100027.94;;;23.07;62.46
15670;BME280;18524;45.190;5.732;2022-10-17T17:02:56;100011.72;;;23.09;62.84
15670;BME280;18524;45.190;5.732;2022-10-17T17:07:46;100024.69;;;22.97;62.91
15670;BME280;18524;45.190;5.732;2022-10-17T17:12:37;100027.06;;;22.92;63.61
15670;BME280;18524;45.190;5.732;2022-10-17T17:17:27;100021.44;;;22.87;63.73
15670;BME280;18524;45.190;5.732;2022-10-17T17:22:17;100039.63;;;22.92;63.89
15670;BME280;18524;45.190;5.732;2022-10-17T17:27:08;100038.38;;;22.80;64.45
15670;BME280;18524;45.190;5.732;2022-10-17T17:31:58;100046.75;;;22.76;66.08
15670;BME280;18524;45.190;5.732;2022-10-17T17:36:49;100057.16;;;22.71;66.55
15670;BME280;18524;45.190;5.732;2022-10-17T17:41:40;100053.19;;;22.67;66.53
15670;BME280;18524;45.190;5.732;2022-10-17T17:46:31;100057.03;;;22.65;67.09
15670;BME280;18524;45.190;5.732;2022-10-17T17:51:24;100065.59;;;22.60;67.57
15670;BME280;18524;45.190;5.732;2022-10-17T17:56:16;100067.13;;;22.55;68.60
15670;BME280;18524;45.190;5.732;2022-10-17T18:01:09;100075.69;;;22.50;69.58
15670;BME280;18524;45.190;5.732;2022-10-17T18:05:59;100091.25;;;22.46;69.49
15670;BME280;18524;45.190;5.732;2022-10-17T18:10:50;100100.66;;;22.42;69.99
15670;BME280;18524;45.190;5.732;2022-10-17T18:15:43;100104.50;;;22.40;71.90
15670;BME280;18524;45.190;5.732;2022-10-17T18:20:34;100107.06;;;22.33;73.87
15670;BME280;18524;45.190;5.732;2022-10-17T18:25:28;100121.09;;;22.27;75.65
15670;BME280;18524;45.190;5.732;2022-10-17T18:30:18;100110.09;;;22.22;76.02
15670;BME280;18524;45.190;5.732;2022-10-17T18:35:09;100105.63;;;22.14;75.45
15670;BME280;18524;45.190;5.732;2022-10-17T18:39:59;100109.50;;;22.12;74.74
15670;BME280;18524;45.190;5.732;2022-10-17T18:44:52;100116.38;;;22.06;75.08
15670;BME280;18524;45.190;5.732;2022-10-17T18:49:42;100102.66;;;22.01;76.21
15670;BME280;18524;45.190;5.732;2022-10-17T18:54:32;100118.88;;;22.00;76.73
15670;BME280;18524;45.190;5.732;2022-10-17T18:59:23;100123.06;;;21.94;76.59
15670;BME280;18524;45.190;5.732;2022-10-17T19:04:14;100119.72;;;21.92;76.83
15670;BME280;18524;45.190;5.732;2022-10-17T19:09:06;100116.38;;;21.90;77.30
15670;BME280;18524;45.190;5.732;2022-10-17T19:13:59;100130.09;;;21.87;78.13
15670;BME280;18524;45.190;5.732;2022-10-17T19:18:52;100131.09;;;21.86;78.33
15670;BME280;18524;45.190;5.732;2022-10-17T19:23:48;100120.09;;;21.81;78.83
15670;BME280;18524;45.190;5.732;2022-10-17T19:28:39;100114.88;;;21.88;78.06
15670;BME280;18524;45.190;5.732;2022-10-17T19:33:34;100126.59;;;21.78;78.53
15670;BME280;18524;45.190;5.732;2022-10-17T19:38:24;100120.13;;;21.73;79.49
15670;BME280;18524;45.190;5.732;2022-10-17T19:43:15;100118.63;;;21.70;79.46
15670;BME280;18524;45.190;5.732;2022-10-17T19:48:05;100123.81;;;21.64;79.44
15670;BME280;18524;45.190;5.732;2022-10-17T19:52:56;100133.84;;;21.62;79.54
15670;BME280;18524;45.190;5.732;2022-10-17T19:57:47;100131.69;;;21.57;79.59
15670;BME280;18524;45.190;5.732;2022-10-17T20:02:37;100123.31;;;21.52;80.01
15670;BME280;18524;45.190;5.732;2022-10-17T20:07:27;100130.00;;;21.48;80.66
15670;BME280;18524;45.190;5.732;2022-10-17T20:12:18;100131.34;;;21.52;79.83
15670;BME280;18524;45.190;5.732;2022-10-17T20:17:08;100132.69;;;21.48;80.94
15670;BME280;18524;45.190;5.732;2022-10-17T20:21:58;100148.22;;;21.44;82.30
15670;BME280;18524;45.190;5.732;2022-10-17T20:26:49;100145.88;;;21.33;84.28
15670;BME280;18524;45.190;5.732;2022-10-17T20:31:40;100163.25;;;21.29;85.29
15670;BME280;18524;45.190;5.732;2022-10-17T20:36:31;100174.59;;;21.23;85.70
15670;BME280;18524;45.190;5.732;2022-10-17T20:41:26;100170.56;;;21.19;86.56
15670;BME280;18524;45.190;5.732;2022-10-17T20:46:18;100165.22;;;21.19;86.64
15670;BME280;18524;45.190;5.732;2022-10-17T20:51:09;100179.19;;;21.13;86.91
15670;BME280;18524;45.190;5.732;2022-10-17T20:56:20;100183.22;;;21.09;87.23
15670;BME280;18524;45.190;5.732;2022-10-17T21:01:11;100179.19;;;21.05;87.35
15670;BME280;18524;45.190;5.732;2022-10-17T21:06:02;100186.38;;;21.04;86.95
15670;BME280;18524;45.190;5.732;2022-10-17T21:10:52;100187.38;;;21.03;87.21
15670;BME280;18524;45.190;5.732;2022-10-17T21:15:42;100189.88;;;20.97;87.81
15670;BME280;18524;45.190;5.732;2022-10-17T21:20:33;100199.38;;;20.91;88.30
15670;BME280;18524;45.190;5.732;2022-10-17T21:25:23;100201.53;;;20.96;88.00
15670;BME280;18524;45.190;5.732;2022-10-17T21:30:13;100199.88;;;20.86;88.57
15670;BME280;18524;45.190;5.732;2022-10-17T21:35:04;100200.34;;;20.82;89.20
15670;BME280;18524;45.190;5.732;2022-10-17T21:39:55;100201.19;;;20.82;89.28
15670;BME280;18524;45.190;5.732;2022-10-17T21:44:45;100204.16;;;20.79;89.95
15670;BME280;18524;45.190;5.732;2022-10-17T21:49:36;100206.16;;;20.77;90.51
15670;BME280;18524;45.190;5.732;2022-10-17T21:54:27;100197.81;;;20.80;89.28
15670;BME280;18524;45.190;5.732;2022-10-17T21:59:17;100195.16;;;20.72;89.84
15670;BME280;18524;45.190;5.732;2022-10-17T22:04:16;100205.81;;;20.72;90.22
15670;BME280;18524;45.190;5.732;2022-10-17T22:09:16;100202.16;;;20.73;90.48
15670;BME280;18524;45.190;5.732;2022-10-17T22:14:14;100199.47;;;20.65;91.46
15670;BME280;18524;45.190;5.732;2022-10-17T22:19:06;100202.63;;;20.60;91.56
15670;BME280;18524;45.190;5.732;2022-10-17T22:24:01;100216.13;;;20.59;91.17
15670;BME280;18524;45.190;5.732;2022-10-17T22:28:52;100211.78;;;20.58;91.21
15670;BME280;18524;45.190;5.732;2022-10-17T22:33:43;100234.41;;;20.54;92.56
15670;BME280;18524;45.190;5.732;2022-10-17T22:38:33;100224.44;;;20.56;95.71
15670;BME280;18524;45.190;5.732;2022-10-17T22:43:24;100197.44;;;20.51;97.19
15670;BME280;18524;45.190;5.732;2022-10-17T22:48:15;100216.56;;;20.46;98.68
15670;BME280;18524;45.190;5.732;2022-10-17T22:53:05;100218.47;;;20.36;99.19
15670;BME280;18524;45.190;5.732;2022-10-17T22:57:55;100218.44;;;20.28;99.91
15670;BME280;18524;45.190;5.732;2022-10-17T23:02:46;100213.41;;;20.17;100.00
15670;BME280;18524;45.190;5.732;2022-10-17T23:07:36;100218.00;;;20.07;100.00
15670;BME280;18524;45.190;5.732;2022-10-17T23:12:26;100221.81;;;20.04;100.00
15670;BME280;18524;45.190;5.732;2022-10-17T23:17:17;100217.59;;;19.93;100.00
15670;BME280;18524;45.190;5.732;2022-10-17T23:22:08;100226.00;;;19.81;100.00
15670;BME280;18524;45.190;5.732;2022-10-17T23:26:59;100231.13;;;19.74;100.00
15670;BME280;18524;45.190;5.732;2022-10-17T23:31:53;100228.22;;;19.67;100.00
15670;BME280;18524;45.190;5.732;2022-10-17T23:36:44;100220.91;;;19.70;100.00
15670;BME280;18524;45.190;5.732;2022-10-17T23:41:34;100221.19;;;19.58;100.00
15670;BME280;18524;45.190;5.732;2022-10-17T23:46:24;100228.47;;;19.56;100.00
15670;BME280;18524;45.190;5.732;2022-10-17T23:51:15;100222.91;;;19.50;100.00
15670;BME280;18524;45.190;5.732;2022-10-17T23:56:07;100220.19;;;19.42;100.00
